El Palomar, Argentina

4:40 AM ART on September 01, 2015 (GMT -0300)
Villa Ballester | | Change Station
CLOSE
Current Station
Personal Weather Station
Location: Villa Ballester, BUENOS AIRES
Elevation: 95 ft
Nearby Weather Stations

Elev 95 ft 34.56 °S, 58.57 °W | Updated 4 minutes ago

Clear
Clear
46.0 °F
Feels Like 44 °F
N
5.0
Wind Variable Wind from SSE
Gusts 11.0 mph

Today
High -- | Low -- °F
--% Chance of Precip.
Yesterday
High -- | Low -- °F
Precip. -- in
7:13 AM 6:35 PM
Waning Gibbous, 90% visible
Pressure 30.42 in
Visibility -9999.0 miles
Clouds
Windchill 44 °F
Dew Point 34 °F
Humidity 64%
Rainfall 0.00 in
Snow Depth Not available.
UV Not available.
Pollen Not available.
Air Quality Not available.
Flu Activity Not available.
METAR SADF 010700Z 14006KT CAVOK 08/02 Q1030
Pressure 30.42 in
Visibility -9999.0 miles
Clouds
Windchill 44 °F
Dew Point 34 °F
Humidity 64%
Rainfall 0.00 in
Snow Depth Not available.
UV Not available.
Pollen Not available.
Air Quality Not available.
Flu Activity Not available.
METAR SADF 010700Z 14006KT CAVOK 08/02 Q1030

10-Day Weather Forecast

×

Almanac

Astronomy

Sep. 01, 2015 Rise Set
Actual Time
Civil Twilight
Nautical Twilight
Astronomical Twilight
Moon
Length of Visible Light
Length of Day
Tomorrow will be .
, % of the Moon is Illuminated

Today's Extremes

Country Highs Country Lows

Community

WunderPhotos

Upload Photos

1,851,488 photos uploaded!

WunderBlogs® & News

Nearby

Air Quality

  Air Quality AQ Index Pollutant
Not available.

Snow Depth

Station Depth Elevation

Earthquake Activity

City Distance Mag. Time & Date
Minimum magnitude displayed is 2.5.

Coastal Water Temperatures

Place Temperature

Stations

Nearby Weather Stations

Station Location Temp. Windchill Dew Point Humidity Wind Precip. Elev Updated Type